sensor_id;sensor_type;location;lat;lon;timestamp;temperature;humidity
4425;DHT22;2225;53.568;13.266;2022-11-18T00:01:11;5.40;86.60
4425;DHT22;2225;53.568;13.266;2022-11-18T00:03:45;5.40;86.60
4425;DHT22;2225;53.568;13.266;2022-11-18T00:06:15;5.40;86.70
4425;DHT22;2225;53.568;13.266;2022-11-18T00:08:44;5.30;86.60
4425;DHT22;2225;53.568;13.266;2022-11-18T00:11:13;5.30;86.50
4425;DHT22;2225;53.568;13.266;2022-11-18T00:14:02;5.30;86.60
4425;DHT22;2225;53.568;13.266;2022-11-18T00:19:23;5.20;86.70
4425;DHT22;2225;53.568;13.266;2022-11-18T00:21:52;5.20;86.80
4425;DHT22;2225;53.568;13.266;2022-11-18T00:24:19;5.10;86.80
4425;DHT22;2225;53.568;13.266;2022-11-18T00:26:47;5.10;86.90
4425;DHT22;2225;53.568;13.266;2022-11-18T00:29:14;5.10;86.90
4425;DHT22;2225;53.568;13.266;2022-11-18T00:31:42;5.10;87.20
4425;DHT22;2225;53.568;13.266;2022-11-18T00:34:14;5.10;87.50
4425;DHT22;2225;53.568;13.266;2022-11-18T00:36:42;5.10;87.60
4425;DHT22;2225;53.568;13.266;2022-11-18T00:39:11;5.10;87.50
4425;DHT22;2225;53.568;13.266;2022-11-18T00:41:38;5.10;87.50
4425;DHT22;2225;53.568;13.266;2022-11-18T00:44:24;5.10;87.50
4425;DHT22;2225;53.568;13.266;2022-11-18T00:46:52;5.10;87.50
4425;DHT22;2225;53.568;13.266;2022-11-18T00:49:18;5.10;87.10
4425;DHT22;2225;53.568;13.266;2022-11-18T00:51:45;5.10;87.10
4425;DHT22;2225;53.568;13.266;2022-11-18T00:54:12;5.10;87.20
4425;DHT22;2225;53.568;13.266;2022-11-18T00:56:39;5.10;87.30
4425;DHT22;2225;53.568;13.266;2022-11-18T00:59:06;5.10;87.40
4425;DHT22;2225;53.568;13.266;2022-11-18T01:01:33;5.10;87.30
4425;DHT22;2225;53.568;13.266;2022-11-18T01:04:00;5.10;87.10
4425;DHT22;2225;53.568;13.266;2022-11-18T01:06:27;5.10;87.20
4425;DHT22;2225;53.568;13.266;2022-11-18T01:08:55;5.00;87.20
4425;DHT22;2225;53.568;13.266;2022-11-18T01:11:22;5.00;87.40
4425;DHT22;2225;53.568;13.266;2022-11-18T01:14:07;4.90;87.80
4425;DHT22;2225;53.568;13.266;2022-11-18T01:16:34;4.90;87.90
4425;DHT22;2225;53.568;13.266;2022-11-18T01:19:00;4.90;88.20
4425;DHT22;2225;53.568;13.266;2022-11-18T01:21:28;4.90;88.20
4425;DHT22;2225;53.568;13.266;2022-11-18T01:23:55;4.90;88.30
4425;DHT22;2225;53.568;13.266;2022-11-18T01:26:22;4.90;88.10
4425;DHT22;2225;53.568;13.266;2022-11-18T01:28:48;5.00;88.10
4425;DHT22;2225;53.568;13.266;2022-11-18T01:31:18;4.90;88.70
4425;DHT22;2225;53.568;13.266;2022-11-18T01:33:45;5.00;88.00
4425;DHT22;2225;53.568;13.266;2022-11-18T01:36:21;4.90;87.80
4425;DHT22;2225;53.568;13.266;2022-11-18T01:38:48;4.90;87.80
4425;DHT22;2225;53.568;13.266;2022-11-18T01:41:17;4.90;87.90
4425;DHT22;2225;53.568;13.266;2022-11-18T01:43:53;4.80;87.90
4425;DHT22;2225;53.568;13.266;2022-11-18T01:46:24;4.80;87.80
4425;DHT22;2225;53.568;13.266;2022-11-18T01:48:56;4.80;88.00
4425;DHT22;2225;53.568;13.266;2022-11-18T01:51:35;4.80;88.00
4425;DHT22;2225;53.568;13.266;2022-11-18T01:54:08;4.70;88.30
4425;DHT22;2225;53.568;13.266;2022-11-18T01:56:42;4.60;88.40
4425;DHT22;2225;53.568;13.266;2022-11-18T01:59:15;4.50;88.60
4425;DHT22;2225;53.568;13.266;2022-11-18T02:01:44;4.50;88.80
4425;DHT22;2225;53.568;13.266;2022-11-18T02:04:13;4.50;89.10
4425;DHT22;2225;53.568;13.266;2022-11-18T02:06:42;4.40;89.20
4425;DHT22;2225;53.568;13.266;2022-11-18T02:09:11;4.40;89.20
4425;DHT22;2225;53.568;13.266;2022-11-18T02:11:38;4.40;89.40
4425;DHT22;2225;53.568;13.266;2022-11-18T02:14:20;4.40;89.50
4425;DHT22;2225;53.568;13.266;2022-11-18T02:16:56;4.40;89.50
4425;DHT22;2225;53.568;13.266;2022-11-18T02:29:17;4.50;89.20
4425;DHT22;2225;53.568;13.266;2022-11-18T02:32:09;4.50;89.20
4425;DHT22;2225;53.568;13.266;2022-11-18T02:37:34;4.50;89.50
4425;DHT22;2225;53.568;13.266;2022-11-18T02:40:14;4.40;89.70
4425;DHT22;2225;53.568;13.266;2022-11-18T02:42:44;4.50;89.70
4425;DHT22;2225;53.568;13.266;2022-11-18T02:45:17;4.50;89.70
4425;DHT22;2225;53.568;13.266;2022-11-18T02:47:45;4.50;89.70
4425;DHT22;2225;53.568;13.266;2022-11-18T02:50:16;4.50;89.70
4425;DHT22;2225;53.568;13.266;2022-11-18T02:52:46;4.50;89.60
4425;DHT22;2225;53.568;13.266;2022-11-18T02:55:16;4.60;89.60
4425;DHT22;2225;53.568;13.266;2022-11-18T02:57:44;4.50;89.00
4425;DHT22;2225;53.568;13.266;2022-11-18T03:00:12;4.50;88.90
4425;DHT22;2225;53.568;13.266;2022-11-18T03:02:41;4.60;88.90
4425;DHT22;2225;53.568;13.266;2022-11-18T03:05:35;4.60;89.10
4425;DHT22;2225;53.568;13.266;2022-11-18T03:08:13;4.50;88.90
4425;DHT22;2225;53.568;13.266;2022-11-18T03:11:06;4.50;88.60
4425;DHT22;2225;53.568;13.266;2022-11-18T03:14:00;4.60;88.50
4425;DHT22;2225;53.568;13.266;2022-11-18T03:17:20;4.50;88.40
4425;DHT22;2225;53.568;13.266;2022-11-18T03:19:41;4.50;88.20
4425;DHT22;2225;53.568;13.266;2022-11-18T03:22:25;4.40;88.10
4425;DHT22;2225;53.568;13.266;2022-11-18T03:25:20;4.40;88.30
4425;DHT22;2225;53.568;13.266;2022-11-18T03:28:17;4.40;88.20
4425;DHT22;2225;53.568;13.266;2022-11-18T03:30:56;4.30;88.10
4425;DHT22;2225;53.568;13.266;2022-11-18T03:33:37;4.30;88.00
4425;DHT22;2225;53.568;13.266;2022-11-18T03:36:09;4.20;88.90
4425;DHT22;2225;53.568;13.266;2022-11-18T03:38:43;4.20;88.90
4425;DHT22;2225;53.568;13.266;2022-11-18T03:41:14;4.10;88.30
4425;DHT22;2225;53.568;13.266;2022-11-18T03:43:47;4.10;88.30
4425;DHT22;2225;53.568;13.266;2022-11-18T03:46:27;4.00;88.80
4425;DHT22;2225;53.568;13.266;2022-11-18T03:48:59;3.90;88.70
4425;DHT22;2225;53.568;13.266;2022-11-18T03:51:44;3.90;88.80
4425;DHT22;2225;53.568;13.266;2022-11-18T03:54:22;3.80;89.00
4425;DHT22;2225;53.568;13.266;2022-11-18T03:56:56;3.80;89.10
4425;DHT22;2225;53.568;13.266;2022-11-18T03:59:32;3.70;89.10
4425;DHT22;2225;53.568;13.266;2022-11-18T04:02:07;3.70;89.70
4425;DHT22;2225;53.568;13.266;2022-11-18T04:04:37;3.70;89.20
4425;DHT22;2225;53.568;13.266;2022-11-18T04:07:31;3.60;88.90
4425;DHT22;2225;53.568;13.266;2022-11-18T04:10:10;3.60;89.20
4425;DHT22;2225;53.568;13.266;2022-11-18T04:12:44;3.60;89.20
4425;DHT22;2225;53.568;13.266;2022-11-18T04:15:18;3.50;89.10
4425;DHT22;2225;53.568;13.266;2022-11-18T04:17:45;3.50;89.20
4425;DHT22;2225;53.568;13.266;2022-11-18T04:20:18;3.40;89.30
4425;DHT22;2225;53.568;13.266;2022-11-18T04:22:46;3.40;89.70
4425;DHT22;2225;53.568;13.266;2022-11-18T04:25:13;3.40;89.80
4425;DHT22;2225;53.568;13.266;2022-11-18T04:27:41;3.30;89.70
4425;DHT22;2225;53.568;13.266;2022-11-18T04:30:08;3.30;89.80
4425;DHT22;2225;53.568;13.266;2022-11-18T04:32:35;3.20;89.80
4425;DHT22;2225;53.568;13.266;2022-11-18T04:35:02;3.20;90.00
4425;DHT22;2225;53.568;13.266;2022-11-18T04:37:29;3.20;90.00
4425;DHT22;2225;53.568;13.266;2022-11-18T04:39:56;3.10;90.00
4425;DHT22;2225;53.568;13.266;2022-11-18T04:42:23;3.10;90.00
4425;DHT22;2225;53.568;13.266;2022-11-18T04:44:50;3.10;90.20
4425;DHT22;2225;53.568;13.266;2022-11-18T04:47:17;3.10;90.30
4425;DHT22;2225;53.568;13.266;2022-11-18T04:49:43;3.00;90.30
4425;DHT22;2225;53.568;13.266;2022-11-18T04:52:10;3.00;90.40
4425;DHT22;2225;53.568;13.266;2022-11-18T04:54:37;3.00;90.50
4425;DHT22;2225;53.568;13.266;2022-11-18T04:57:04;2.90;90.60
4425;DHT22;2225;53.568;13.266;2022-11-18T04:59:31;2.90;90.70
4425;DHT22;2225;53.568;13.266;2022-11-18T05:01:58;2.90;90.80
4425;DHT22;2225;53.568;13.266;2022-11-18T05:04:29;2.90;90.90
4425;DHT22;2225;53.568;13.266;2022-11-18T05:06:57;2.90;90.80
4425;DHT22;2225;53.568;13.266;2022-11-18T05:09:25;2.80;90.80
4425;DHT22;2225;53.568;13.266;2022-11-18T05:11:57;2.90;90.80
4425;DHT22;2225;53.568;13.266;2022-11-18T05:14:42;2.80;90.90
4425;DHT22;2225;53.568;13.266;2022-11-18T05:17:15;2.80;90.90
4425;DHT22;2225;53.568;13.266;2022-11-18T05:19:43;2.80;91.00
4425;DHT22;2225;53.568;13.266;2022-11-18T05:22:09;2.80;90.90
4425;DHT22;2225;53.568;13.266;2022-11-18T05:24:36;2.80;90.90
4425;DHT22;2225;53.568;13.266;2022-11-18T05:27:03;2.90;90.90
4425;DHT22;2225;53.568;13.266;2022-11-18T05:29:30;2.80;90.90
4425;DHT22;2225;53.568;13.266;2022-11-18T05:31:58;2.90;90.90
4425;DHT22;2225;53.568;13.266;2022-11-18T05:34:25;2.90;90.90
4425;DHT22;2225;53.568;13.266;2022-11-18T05:36:52;2.90;90.90
4425;DHT22;2225;53.568;13.266;2022-11-18T05:39:19;2.90;91.20
4425;DHT22;2225;53.568;13.266;2022-11-18T05:41:47;2.90;90.80
4425;DHT22;2225;53.568;13.266;2022-11-18T05:44:32;2.90;90.80
4425;DHT22;2225;53.568;13.266;2022-11-18T05:46:59;2.90;90.90
4425;DHT22;2225;53.568;13.266;2022-11-18T05:49:26;2.90;90.90
4425;DHT22;2225;53.568;13.266;2022-11-18T05:51:53;2.90;90.90
4425;DHT22;2225;53.568;13.266;2022-11-18T05:54:20;2.90;90.90
4425;DHT22;2225;53.568;13.266;2022-11-18T05:56:47;2.90;90.90
4425;DHT22;2225;53.568;13.266;2022-11-18T05:59:14;2.90;90.80
4425;DHT22;2225;53.568;13.266;2022-11-18T06:01:49;2.90;90.70
4425;DHT22;2225;53.568;13.266;2022-11-18T06:04:33;2.90;90.70
4425;DHT22;2225;53.568;13.266;2022-11-18T06:07:06;2.90;90.70
4425;DHT22;2225;53.568;13.266;2022-11-18T06:09:37;2.90;90.70
4425;DHT22;2225;53.568;13.266;2022-11-18T06:12:06;2.90;90.70
4425;DHT22;2225;53.568;13.266;2022-11-18T06:14:43;2.90;90.70
4425;DHT22;2225;53.568;13.266;2022-11-18T06:17:27;2.90;90.80
4425;DHT22;2225;53.568;13.266;2022-11-18T06:19:57;2.90;90.80
4425;DHT22;2225;53.568;13.266;2022-11-18T06:22:25;2.80;90.70
4425;DHT22;2225;53.568;13.266;2022-11-18T06:24:52;2.80;90.80
4425;DHT22;2225;53.568;13.266;2022-11-18T06:27:20;2.80;90.70
4425;DHT22;2225;53.568;13.266;2022-11-18T06:29:47;2.80;90.70
4425;DHT22;2225;53.568;13.266;2022-11-18T06:32:14;2.80;90.70
4425;DHT22;2225;53.568;13.266;2022-11-18T06:34:40;2.80;90.60
4425;DHT22;2225;53.568;13.266;2022-11-18T06:37:15;2.90;90.70
4425;DHT22;2225;53.568;13.266;2022-11-18T06:39:43;2.90;90.60
4425;DHT22;2225;53.568;13.266;2022-11-18T06:42:10;2.80;90.50
4425;DHT22;2225;53.568;13.266;2022-11-18T06:44:37;2.80;90.70
4425;DHT22;2225;53.568;13.266;2022-11-18T06:47:04;2.80;90.60
4425;DHT22;2225;53.568;13.266;2022-11-18T06:49:31;2.80;90.70
4425;DHT22;2225;53.568;13.266;2022-11-18T06:51:57;2.80;90.80
4425;DHT22;2225;53.568;13.266;2022-11-18T06:54:24;2.70;90.90
4425;DHT22;2225;53.568;13.266;2022-11-18T06:56:51;2.70;90.90
4425;DHT22;2225;53.568;13.266;2022-11-18T06:59:18;2.70;90.90
4425;DHT22;2225;53.568;13.266;2022-11-18T07:01:49;2.60;91.10
4425;DHT22;2225;53.568;13.266;2022-11-18T07:04:18;2.60;91.00
4425;DHT22;2225;53.568;13.266;2022-11-18T07:06:45;2.60;91.10
4425;DHT22;2225;53.568;13.266;2022-11-18T07:09:12;2.60;91.20
4425;DHT22;2225;53.568;13.266;2022-11-18T07:11:39;2.60;91.30
4425;DHT22;2225;53.568;13.266;2022-11-18T07:14:08;2.60;91.30
4425;DHT22;2225;53.568;13.266;2022-11-18T07:16:35;2.60;91.50
4425;DHT22;2225;53.568;13.266;2022-11-18T07:19:11;2.60;91.50
4425;DHT22;2225;53.568;13.266;2022-11-18T07:21:39;2.60;91.50
4425;DHT22;2225;53.568;13.266;2022-11-18T07:24:08;2.60;91.40
4425;DHT22;2225;53.568;13.266;2022-11-18T07:26:35;2.70;91.50
4425;DHT22;2225;53.568;13.266;2022-11-18T07:29:02;2.70;91.40
4425;DHT22;2225;53.568;13.266;2022-11-18T07:31:29;2.70;91.40
4425;DHT22;2225;53.568;13.266;2022-11-18T07:33:57;2.70;91.40
4425;DHT22;2225;53.568;13.266;2022-11-18T07:36:26;2.80;91.40
4425;DHT22;2225;53.568;13.266;2022-11-18T07:39:02;2.80;91.40
4425;DHT22;2225;53.568;13.266;2022-11-18T07:41:32;2.80;91.40
4425;DHT22;2225;53.568;13.266;2022-11-18T07:44:00;2.80;91.50
4425;DHT22;2225;53.568;13.266;2022-11-18T07:46:33;2.90;91.50
4425;DHT22;2225;53.568;13.266;2022-11-18T07:49:05;2.90;91.50
4425;DHT22;2225;53.568;13.266;2022-11-18T07:51:34;3.00;91.50
4425;DHT22;2225;53.568;13.266;2022-11-18T07:54:08;3.00;91.40
4425;DHT22;2225;53.568;13.266;2022-11-18T07:56:36;3.00;91.40
4425;DHT22;2225;53.568;13.266;2022-11-18T07:59:03;3.10;91.30
4425;DHT22;2225;53.568;13.266;2022-11-18T08:01:31;3.10;91.30
4425;DHT22;2225;53.568;13.266;2022-11-18T08:04:04;3.20;91.20
4425;DHT22;2225;53.568;13.266;2022-11-18T08:06:33;3.20;91.10
4425;DHT22;2225;53.568;13.266;2022-11-18T08:09:01;3.30;91.00
4425;DHT22;2225;53.568;13.266;2022-11-18T08:11:28;3.30;91.00
4425;DHT22;2225;53.568;13.266;2022-11-18T08:13:55;3.30;90.80
4425;DHT22;2225;53.568;13.266;2022-11-18T08:16:24;3.30;90.70
4425;DHT22;2225;53.568;13.266;2022-11-18T08:18:51;3.30;90.60
4425;DHT22;2225;53.568;13.266;2022-11-18T08:21:20;3.40;90.60
4425;DHT22;2225;53.568;13.266;2022-11-18T08:23:52;3.40;90.40
4425;DHT22;2225;53.568;13.266;2022-11-18T08:26:23;3.40;90.20
4425;DHT22;2225;53.568;13.266;2022-11-18T08:28:50;3.40;90.30
4425;DHT22;2225;53.568;13.266;2022-11-18T08:31:23;3.40;90.30
4425;DHT22;2225;53.568;13.266;2022-11-18T08:34:04;3.50;90.10
4425;DHT22;2225;53.568;13.266;2022-11-18T08:36:34;3.50;89.90
4425;DHT22;2225;53.568;13.266;2022-11-18T08:39:05;3.50;89.60
4425;DHT22;2225;53.568;13.266;2022-11-18T08:41:36;3.50;89.30
4425;DHT22;2225;53.568;13.266;2022-11-18T08:44:06;3.50;89.50
4425;DHT22;2225;53.568;13.266;2022-11-18T08:46:38;3.60;89.10
4425;DHT22;2225;53.568;13.266;2022-11-18T08:49:05;3.60;89.30
4425;DHT22;2225;53.568;13.266;2022-11-18T08:51:32;3.70;89.40
4425;DHT22;2225;53.568;13.266;2022-11-18T08:53:59;3.70;89.00
4425;DHT22;2225;53.568;13.266;2022-11-18T08:56:26;3.70;88.90
4425;DHT22;2225;53.568;13.266;2022-11-18T08:58:53;3.80;88.50
4425;DHT22;2225;53.568;13.266;2022-11-18T09:01:20;3.80;88.30
4425;DHT22;2225;53.568;13.266;2022-11-18T09:03:48;3.90;88.30
4425;DHT22;2225;53.568;13.266;2022-11-18T09:06:17;3.90;87.80
4425;DHT22;2225;53.568;13.266;2022-11-18T09:08:46;3.90;87.90
4425;DHT22;2225;53.568;13.266;2022-11-18T09:11:18;4.00;87.70
4425;DHT22;2225;53.568;13.266;2022-11-18T09:13:54;4.00;87.10
4425;DHT22;2225;53.568;13.266;2022-11-18T09:16:43;4.00;86.40
4425;DHT22;2225;53.568;13.266;2022-11-18T09:19:10;4.00;86.10
4425;DHT22;2225;53.568;13.266;2022-11-18T09:21:57;4.10;86.10
4425;DHT22;2225;53.568;13.266;2022-11-18T09:24:24;4.10;86.00
4425;DHT22;2225;53.568;13.266;2022-11-18T09:26:51;4.10;86.40
4425;DHT22;2225;53.568;13.266;2022-11-18T09:29:19;4.20;86.00
4425;DHT22;2225;53.568;13.266;2022-11-18T09:31:51;4.20;85.20
4425;DHT22;2225;53.568;13.266;2022-11-18T09:34:19;4.20;84.90
4425;DHT22;2225;53.568;13.266;2022-11-18T09:36:46;4.30;85.10
4425;DHT22;2225;53.568;13.266;2022-11-18T09:39:13;4.30;84.40
4425;DHT22;2225;53.568;13.266;2022-11-18T09:42:00;4.30;84.40
4425;DHT22;2225;53.568;13.266;2022-11-18T09:47:38;4.40;84.00
4425;DHT22;2225;53.568;13.266;2022-11-18T09:50:10;4.40;84.00
4425;DHT22;2225;53.568;13.266;2022-11-18T09:53:24;4.40;83.30
4425;DHT22;2225;53.568;13.266;2022-11-18T09:55:52;4.50;83.30
4425;DHT22;2225;53.568;13.266;2022-11-18T09:58:32;4.60;83.30
4425;DHT22;2225;53.568;13.266;2022-11-18T10:01:01;4.70;83.00
4425;DHT22;2225;53.568;13.266;2022-11-18T10:03:30;4.70;82.00
4425;DHT22;2225;53.568;13.266;2022-11-18T10:06:23;4.80;82.20
4425;DHT22;2225;53.568;13.266;2022-11-18T10:12:03;4.90;80.90
4425;DHT22;2225;53.568;13.266;2022-11-18T10:14:51;5.00;80.80
4425;DHT22;2225;53.568;13.266;2022-11-18T10:21:22;5.00;79.90
4425;DHT22;2225;53.568;13.266;2022-11-18T10:24:01;5.10;79.60
4425;DHT22;2225;53.568;13.266;2022-11-18T10:26:39;5.20;80.60
4425;DHT22;2225;53.568;13.266;2022-11-18T10:29:07;5.20;79.20
4425;DHT22;2225;53.568;13.266;2022-11-18T10:31:38;5.30;78.90
4425;DHT22;2225;53.568;13.266;2022-11-18T10:34:09;5.30;79.10
4425;DHT22;2225;53.568;13.266;2022-11-18T10:36:39;5.40;78.80
4425;DHT22;2225;53.568;13.266;2022-11-18T10:39:12;5.40;78.40
4425;DHT22;2225;53.568;13.266;2022-11-18T10:41:46;5.40;78.50
4425;DHT22;2225;53.568;13.266;2022-11-18T10:44:35;5.50;78.80
4425;DHT22;2225;53.568;13.266;2022-11-18T10:47:32;5.60;77.80
4425;DHT22;2225;53.568;13.266;2022-11-18T10:50:01;5.60;77.60
4425;DHT22;2225;53.568;13.266;2022-11-18T10:53:01;5.60;77.50
4425;DHT22;2225;53.568;13.266;2022-11-18T10:55:29;5.70;76.60
4425;DHT22;2225;53.568;13.266;2022-11-18T10:58:00;5.70;76.50
4425;DHT22;2225;53.568;13.266;2022-11-18T11:03:22;5.80;76.80
4425;DHT22;2225;53.568;13.266;2022-11-18T11:09:00;5.90;76.50
4425;DHT22;2225;53.568;13.266;2022-11-18T11:14:30;5.90;75.00
4425;DHT22;2225;53.568;13.266;2022-11-18T11:17:05;5.90;75.00
4425;DHT22;2225;53.568;13.266;2022-11-18T11:19:50;6.00;75.40
4425;DHT22;2225;53.568;13.266;2022-11-18T11:22:22;6.00;74.90
4425;DHT22;2225;53.568;13.266;2022-11-18T11:24:49;6.00;74.60
4425;DHT22;2225;53.568;13.266;2022-11-18T11:27:25;6.10;74.70
4425;DHT22;2225;53.568;13.266;2022-11-18T11:30:20;6.10;75.80
4425;DHT22;2225;53.568;13.266;2022-11-18T11:38:59;6.20;75.10
4425;DHT22;2225;53.568;13.266;2022-11-18T11:41:44;6.30;75.10
4425;DHT22;2225;53.568;13.266;2022-11-18T11:44:43;6.40;75.00
4425;DHT22;2225;53.568;13.266;2022-11-18T11:50:41;6.40;74.90
4425;DHT22;2225;53.568;13.266;2022-11-18T11:56:39;6.50;75.00
4425;DHT22;2225;53.568;13.266;2022-11-18T11:59:17;6.60;75.00
4425;DHT22;2225;53.568;13.266;2022-11-18T12:05:16;6.60;73.70
4425;DHT22;2225;53.568;13.266;2022-11-18T12:07:58;6.70;73.80
4425;DHT22;2225;53.568;13.266;2022-11-18T12:19:21;6.80;73.70
4425;DHT22;2225;53.568;13.266;2022-11-18T12:24:27;6.80;73.50
4425;DHT22;2225;53.568;13.266;2022-11-18T12:27:03;6.90;74.50
4425;DHT22;2225;53.568;13.266;2022-11-18T12:32:28;7.00;73.20
4425;DHT22;2225;53.568;13.266;2022-11-18T12:40:41;7.00;72.80
4425;DHT22;2225;53.568;13.266;2022-11-18T12:48:52;7.10;72.80
4425;DHT22;2225;53.568;13.266;2022-11-18T12:53:48;7.20;72.00
4425;DHT22;2225;53.568;13.266;2022-11-18T12:56:21;7.20;72.20
4425;DHT22;2225;53.568;13.266;2022-11-18T12:58:57;7.20;71.80
4425;DHT22;2225;53.568;13.266;2022-11-18T13:01:31;7.20;70.90
4425;DHT22;2225;53.568;13.266;2022-11-18T13:04:15;7.20;71.10
4425;DHT22;2225;53.568;13.266;2022-11-18T13:06:43;7.20;70.70
4425;DHT22;2225;53.568;13.266;2022-11-18T13:09:16;7.20;70.60
4425;DHT22;2225;53.568;13.266;2022-11-18T13:11:49;7.20;70.60
4425;DHT22;2225;53.568;13.266;2022-11-18T13:17:31;7.20;71.20
4425;DHT22;2225;53.568;13.266;2022-11-18T13:20:28;7.20;70.70
4425;DHT22;2225;53.568;13.266;2022-11-18T13:26:25;7.20;70.70
4425;DHT22;2225;53.568;13.266;2022-11-18T13:34:46;7.20;71.30
4425;DHT22;2225;53.568;13.266;2022-11-18T13:37:17;7.20;70.80
4425;DHT22;2225;53.568;13.266;2022-11-18T13:39:48;7.20;71.00
4425;DHT22;2225;53.568;13.266;2022-11-18T13:42:22;7.20;70.70
4425;DHT22;2225;53.568;13.266;2022-11-18T13:44:54;7.20;71.20
4425;DHT22;2225;53.568;13.266;2022-11-18T13:47:33;7.20;71.30
4425;DHT22;2225;53.568;13.266;2022-11-18T13:50:32;7.10;71.30
4425;DHT22;2225;53.568;13.266;2022-11-18T13:53:13;7.10;71.60
4425;DHT22;2225;53.568;13.266;2022-11-18T13:58:58;7.10;72.00
4425;DHT22;2225;53.568;13.266;2022-11-18T14:01:44;7.10;72.10
4425;DHT22;2225;53.568;13.266;2022-11-18T14:04:27;7.10;72.40
4425;DHT22;2225;53.568;13.266;2022-11-18T14:07:31;7.10;72.00
4425;DHT22;2225;53.568;13.266;2022-11-18T14:10:05;7.10;72.30
4425;DHT22;2225;53.568;13.266;2022-11-18T14:12:34;7.10;72.30
4425;DHT22;2225;53.568;13.266;2022-11-18T14:15:34;7.10;72.50
4425;DHT22;2225;53.568;13.266;2022-11-18T14:18:26;7.00;72.50
4425;DHT22;2225;53.568;13.266;2022-11-18T14:20:57;7.10;72.80
4425;DHT22;2225;53.568;13.266;2022-11-18T14:23:33;7.00;72.60
4425;DHT22;2225;53.568;13.266;2022-11-18T14:26:03;7.00;72.50
4425;DHT22;2225;53.568;13.266;2022-11-18T14:28:35;7.00;72.90
4425;DHT22;2225;53.568;13.266;2022-11-18T14:33:36;6.90;73.00
4425;DHT22;2225;53.568;13.266;2022-11-18T14:38:42;6.90;73.50
4425;DHT22;2225;53.568;13.266;2022-11-18T14:41:31;6.90;73.30
4425;DHT22;2225;53.568;13.266;2022-11-18T14:44:13;6.80;73.50
4425;DHT22;2225;53.568;13.266;2022-11-18T14:46:42;6.90;73.80
4425;DHT22;2225;53.568;13.266;2022-11-18T14:49:18;6.80;74.00
4425;DHT22;2225;53.568;13.266;2022-11-18T14:51:49;6.80;74.00
4425;DHT22;2225;53.568;13.266;2022-11-18T14:54:18;6.70;74.20
4425;DHT22;2225;53.568;13.266;2022-11-18T14:56:59;6.70;74.20
4425;DHT22;2225;53.568;13.266;2022-11-18T14:59:27;6.70;74.30
4425;DHT22;2225;53.568;13.266;2022-11-18T15:01:54;6.60;74.30
4425;DHT22;2225;53.568;13.266;2022-11-18T15:04:22;6.60;74.30
4425;DHT22;2225;53.568;13.266;2022-11-18T15:06:49;6.60;74.40
4425;DHT22;2225;53.568;13.266;2022-11-18T15:09:16;6.50;74.50
4425;DHT22;2225;53.568;13.266;2022-11-18T15:11:42;6.50;74.60
4425;DHT22;2225;53.568;13.266;2022-11-18T15:14:10;6.50;74.80
4425;DHT22;2225;53.568;13.266;2022-11-18T15:16:37;6.40;74.80
4425;DHT22;2225;53.568;13.266;2022-11-18T15:19:05;6.40;75.10
4425;DHT22;2225;53.568;13.266;2022-11-18T15:21:36;6.30;75.30
4425;DHT22;2225;53.568;13.266;2022-11-18T15:24:03;6.30;75.50
4425;DHT22;2225;53.568;13.266;2022-11-18T15:26:34;6.20;75.70
4425;DHT22;2225;53.568;13.266;2022-11-18T15:29:04;6.20;76.00
4425;DHT22;2225;53.568;13.266;2022-11-18T15:31:31;6.10;75.90
4425;DHT22;2225;53.568;13.266;2022-11-18T15:33:58;6.10;76.30
4425;DHT22;2225;53.568;13.266;2022-11-18T15:36:32;6.00;76.50
4425;DHT22;2225;53.568;13.266;2022-11-18T15:38:59;6.00;76.70
4425;DHT22;2225;53.568;13.266;2022-11-18T15:41:27;5.90;76.70
4425;DHT22;2225;53.568;13.266;2022-11-18T15:43:57;5.90;76.90
4425;DHT22;2225;53.568;13.266;2022-11-18T15:46:26;5.80;77.10
4425;DHT22;2225;53.568;13.266;2022-11-18T15:48:54;5.80;77.30
4425;DHT22;2225;53.568;13.266;2022-11-18T15:51:23;5.80;77.40
4425;DHT22;2225;53.568;13.266;2022-11-18T15:53:51;5.70;77.50
4425;DHT22;2225;53.568;13.266;2022-11-18T15:59:13;5.60;78.00
4425;DHT22;2225;53.568;13.266;2022-11-18T16:01:45;5.60;78.20
4425;DHT22;2225;53.568;13.266;2022-11-18T16:04:16;5.50;78.10
4425;DHT22;2225;53.568;13.266;2022-11-18T16:06:44;5.50;78.20
4425;DHT22;2225;53.568;13.266;2022-11-18T16:09:12;5.40;78.30
4425;DHT22;2225;53.568;13.266;2022-11-18T16:11:40;5.40;78.40
4425;DHT22;2225;53.568;13.266;2022-11-18T16:14:26;5.30;78.40
4425;DHT22;2225;53.568;13.266;2022-11-18T16:16:54;5.30;78.50
4425;DHT22;2225;53.568;13.266;2022-11-18T16:19:24;5.20;79.40
4425;DHT22;2225;53.568;13.266;2022-11-18T16:21:54;5.20;79.00
4425;DHT22;2225;53.568;13.266;2022-11-18T16:24:25;5.10;79.00
4425;DHT22;2225;53.568;13.266;2022-11-18T16:26:54;5.10;79.20
4425;DHT22;2225;53.568;13.266;2022-11-18T16:29:21;5.10;79.30
4425;DHT22;2225;53.568;13.266;2022-11-18T16:31:50;5.00;79.30
4425;DHT22;2225;53.568;13.266;2022-11-18T16:34:26;5.00;79.40
4425;DHT22;2225;53.568;13.266;2022-11-18T16:36:55;5.00;79.70
4425;DHT22;2225;53.568;13.266;2022-11-18T16:39:25;4.90;79.80
4425;DHT22;2225;53.568;13.266;2022-11-18T16:41:57;4.90;80.00
4425;DHT22;2225;53.568;13.266;2022-11-18T16:44:34;4.80;80.00
4425;DHT22;2225;53.568;13.266;2022-11-18T16:47:03;4.80;80.00
4425;DHT22;2225;53.568;13.266;2022-11-18T16:49:39;4.70;80.30
4425;DHT22;2225;53.568;13.266;2022-11-18T16:52:06;4.70;80.40
4425;DHT22;2225;53.568;13.266;2022-11-18T16:54:34;4.70;80.40
4425;DHT22;2225;53.568;13.266;2022-11-18T16:57:10;4.60;80.40
4425;DHT22;2225;53.568;13.266;2022-11-18T16:59:36;4.50;80.50
4425;DHT22;2225;53.568;13.266;2022-11-18T17:02:04;4.50;80.60
4425;DHT22;2225;53.568;13.266;2022-11-18T17:04:31;4.50;80.90
4425;DHT22;2225;53.568;13.266;2022-11-18T17:07:00;4.50;81.00
4425;DHT22;2225;53.568;13.266;2022-11-18T17:09:28;4.40;81.20
4425;DHT22;2225;53.568;13.266;2022-11-18T17:11:56;4.40;81.40
4425;DHT22;2225;53.568;13.266;2022-11-18T17:14:24;4.30;81.50
4425;DHT22;2225;53.568;13.266;2022-11-18T17:16:51;4.30;81.80
4425;DHT22;2225;53.568;13.266;2022-11-18T17:19:20;4.30;82.00
4425;DHT22;2225;53.568;13.266;2022-11-18T17:21:49;4.20;82.20
4425;DHT22;2225;53.568;13.266;2022-11-18T17:24:19;4.20;82.30
4425;DHT22;2225;53.568;13.266;2022-11-18T17:26:48;4.20;82.50
4425;DHT22;2225;53.568;13.266;2022-11-18T17:29:15;4.10;82.30
4425;DHT22;2225;53.568;13.266;2022-11-18T17:31:43;4.10;82.30
4425;DHT22;2225;53.568;13.266;2022-11-18T17:34:11;4.10;82.60
4425;DHT22;2225;53.568;13.266;2022-11-18T17:36:40;4.00;82.60
4425;DHT22;2225;53.568;13.266;2022-11-18T17:39:08;4.00;82.60
4425;DHT22;2225;53.568;13.266;2022-11-18T17:41:37;3.90;82.80
4425;DHT22;2225;53.568;13.266;2022-11-18T17:44:22;3.90;82.80
4425;DHT22;2225;53.568;13.266;2022-11-18T17:46:50;3.90;83.10
4425;DHT22;2225;53.568;13.266;2022-11-18T17:49:17;3.90;83.00
4425;DHT22;2225;53.568;13.266;2022-11-18T17:51:44;3.80;83.20
4425;DHT22;2225;53.568;13.266;2022-11-18T17:54:12;3.80;83.20
4425;DHT22;2225;53.568;13.266;2022-11-18T17:56:40;3.70;83.20
4425;DHT22;2225;53.568;13.266;2022-11-18T17:59:07;3.70;83.50
4425;DHT22;2225;53.568;13.266;2022-11-18T18:01:34;3.60;83.40
4425;DHT22;2225;53.568;13.266;2022-11-18T18:04:01;3.60;83.70
4425;DHT22;2225;53.568;13.266;2022-11-18T18:06:41;3.60;83.70
4425;DHT22;2225;53.568;13.266;2022-11-18T18:09:08;3.50;83.70
4425;DHT22;2225;53.568;13.266;2022-11-18T18:11:35;3.50;83.70
4425;DHT22;2225;53.568;13.266;2022-11-18T18:14:02;3.50;84.00
4425;DHT22;2225;53.568;13.266;2022-11-18T18:16:44;3.50;84.10